Time;durP1;ratioP1;P1;durP2;ratioP2;P2;SDS_P1;SDS_P2;PMS_P1;PMS_P2;Temp;Humidity;BMP_temperature;BMP_pressure;BME280_temperature;BME280_humidity;BME280_pressure;Samples;Min_cycle;Max_cycle;Signal;HPM_P1;HPM_P2
2022/11/17 00:01:55;;;;;;;;;;;5.70;99.90;;;;;;5011664;28;19918;-59
2022/11/17 00:04:24;;;;;;;;;;;5.70;99.90;;;;;;5018565;28;19913;-59
2022/11/17 00:06:49;;;;;;;;;;;5.70;99.90;;;;;;5031421;28;20359;-60
2022/11/17 00:09:16;;;;;;;;;;;5.70;99.90;;;;;;5030146;28;19970;-58
2022/11/17 00:14:32;;;;;;;;;;;5.70;99.90;;;;;;5027143;28;20414;-59
2022/11/17 00:16:58;;;;;;;;;;;5.70;99.90;;;;;;5027728;28;19913;-59
2022/11/17 00:22:08;;;;;;;;;;;5.70;99.90;;;;;;5011904;28;19971;-57
2022/11/17 00:24:33;;;;;;;;;;;5.70;99.90;;;;;;5011432;28;19992;-58
2022/11/17 00:27:02;;;;;;;;;;;5.70;99.90;;;;;;5018103;28;19913;-52
2022/11/17 00:29:27;;;;;;;;;;;5.70;99.90;;;;;;5013288;28;19921;-59
2022/11/17 00:34:38;;;;;;;;;;;5.60;99.90;;;;;;5011758;28;20298;-58
2022/11/17 00:37:04;;;;;;;;;;;5.50;99.90;;;;;;5010980;28;19909;-58
2022/11/17 00:39:29;;;;;;;;;;;5.50;99.90;;;;;;5011056;28;19909;-53
2022/11/17 00:41:55;;;;;;;;;;;5.50;99.90;;;;;;5011532;28;20514;-57
2022/11/17 00:44:21;;;;;;;;;;;5.50;99.90;;;;;;5010878;28;19910;-56
2022/11/17 00:46:47;;;;;;;;;;;5.40;99.90;;;;;;5011557;28;20407;-58
2022/11/17 00:49:13;;;;;;;;;;;5.40;99.90;;;;;;5011820;28;19921;-58
2022/11/17 00:51:39;;;;;;;;;;;5.40;99.90;;;;;;5010773;28;19914;-58
2022/11/17 00:54:05;;;;;;;;;;;5.40;99.90;;;;;;5010724;28;19917;-59
2022/11/17 00:56:31;;;;;;;;;;;5.40;99.90;;;;;;5016955;28;19921;-59
2022/11/17 00:58:56;;;;;;;;;;;5.40;99.90;;;;;;5015557;28;19923;-57
2022/11/17 01:01:22;;;;;;;;;;;5.40;99.90;;;;;;5010998;28;19909;-53
2022/11/17 01:03:48;;;;;;;;;;;5.40;99.90;;;;;;5015885;28;20307;-58
2022/11/17 01:06:15;;;;;;;;;;;5.50;99.90;;;;;;5011793;28;19925;-56
2022/11/17 01:08:40;;;;;;;;;;;5.40;99.90;;;;;;5011212;28;19917;-59
2022/11/17 01:11:07;;;;;;;;;;;5.40;99.90;;;;;;5009559;28;19940;-57
2022/11/17 01:13:33;;;;;;;;;;;5.40;99.90;;;;;;5011010;28;20013;-58
2022/11/17 01:16:06;;;;;;;;;;;5.40;99.90;;;;;;5010999;28;19914;-58
2022/11/17 01:18:32;;;;;;;;;;;5.30;99.90;;;;;;5018197;28;19922;-57
2022/11/17 01:21:02;;;;;;;;;;;5.30;99.90;;;;;;5022075;28;19917;-58
2022/11/17 01:23:27;;;;;;;;;;;5.30;99.90;;;;;;5010175;28;19971;-54
2022/11/17 01:25:53;;;;;;;;;;;5.30;99.90;;;;;;5009764;28;20386;-57
2022/11/17 01:28:18;;;;;;;;;;;5.30;99.90;;;;;;5010296;28;19913;-58
2022/11/17 01:30:44;;;;;;;;;;;5.20;99.90;;;;;;5010961;28;19932;-58
2022/11/17 01:33:09;;;;;;;;;;;5.20;99.90;;;;;;5016198;28;20379;-57
2022/11/17 01:35:35;;;;;;;;;;;5.20;99.90;;;;;;5011013;28;19936;-58
2022/11/17 01:38:00;;;;;;;;;;;5.10;99.90;;;;;;5011192;28;20383;-57
2022/11/17 01:40:25;;;;;;;;;;;5.10;99.90;;;;;;5009904;28;19985;-57
2022/11/17 01:42:51;;;;;;;;;;;5.10;99.90;;;;;;5017359;28;19945;-57
2022/11/17 01:45:19;;;;;;;;;;;5.10;99.90;;;;;;5025996;28;20695;-55
2022/11/17 01:47:55;;;;;;;;;;;5.10;99.90;;;;;;5011414;28;19910;-58
2022/11/17 01:50:20;;;;;;;;;;;5.10;99.90;;;;;;5022641;28;19963;-58
2022/11/17 01:52:47;;;;;;;;;;;5.20;99.90;;;;;;5029631;28;19979;-55
2022/11/17 01:55:13;;;;;;;;;;;5.20;99.90;;;;;;5020430;28;19910;-58
2022/11/17 01:57:44;;;;;;;;;;;5.20;99.90;;;;;;5017553;28;19913;-57
2022/11/17 02:00:10;;;;;;;;;;;5.20;99.90;;;;;;5009622;28;19964;-57
2022/11/17 02:02:37;;;;;;;;;;;5.20;99.90;;;;;;5010749;28;19913;-59
2022/11/17 02:05:17;;;;;;;;;;;5.30;99.90;;;;;;5009995;28;19921;-58
2022/11/17 02:07:43;;;;;;;;;;;5.20;99.90;;;;;;5020207;28;19914;-58
2022/11/17 02:10:09;;;;;;;;;;;5.30;99.90;;;;;;5011719;28;19929;-59
2022/11/17 02:12:35;;;;;;;;;;;5.30;99.90;;;;;;5013333;28;19933;-58
2022/11/17 02:15:01;;;;;;;;;;;5.30;99.90;;;;;;5013594;28;19925;-57
2022/11/17 02:17:31;;;;;;;;;;;5.30;99.90;;;;;;5013623;28;19918;-56
2022/11/17 02:20:03;;;;;;;;;;;5.40;99.90;;;;;;5014412;28;20339;-58
2022/11/17 02:22:47;;;;;;;;;;;5.40;99.90;;;;;;5013676;28;19909;-55
2022/11/17 02:25:30;;;;;;;;;;;5.40;99.90;;;;;;5013406;28;20330;-58
2022/11/17 02:28:14;;;;;;;;;;;5.40;99.90;;;;;;5023273;28;20375;-58
2022/11/17 02:30:44;;;;;;;;;;;5.30;99.90;;;;;;5019161;28;20779;-57
2022/11/17 02:33:16;;;;;;;;;;;5.30;99.90;;;;;;5020727;28;19944;-58
2022/11/17 02:35:49;;;;;;;;;;;5.30;99.90;;;;;;5013362;28;20031;-57
2022/11/17 02:38:14;;;;;;;;;;;5.20;99.90;;;;;;5013664;28;19916;-58
2022/11/17 02:40:47;;;;;;;;;;;5.30;99.90;;;;;;5013931;28;19913;-56
2022/11/17 02:46:03;;;;;;;;;;;5.20;99.90;;;;;;5013569;28;19917;-56
2022/11/17 02:48:33;;;;;;;;;;;5.30;99.90;;;;;;5017528;28;19917;-58
2022/11/17 02:51:00;;;;;;;;;;;5.30;99.90;;;;;;5020746;28;19935;-57
2022/11/17 02:53:26;;;;;;;;;;;5.20;99.90;;;;;;5031427;28;19912;-57
2022/11/17 02:55:52;;;;;;;;;;;5.20;99.90;;;;;;5013473;28;19920;-58
2022/11/17 02:58:18;;;;;;;;;;;5.20;99.90;;;;;;5013677;28;19910;-55
2022/11/17 03:00:52;;;;;;;;;;;5.20;99.90;;;;;;5014020;28;19914;-56
2022/11/17 03:03:26;;;;;;;;;;;5.20;99.90;;;;;;5013266;28;19918;-57
2022/11/17 03:05:52;;;;;;;;;;;5.10;99.90;;;;;;5012568;28;19917;-55
2022/11/17 03:08:36;;;;;;;;;;;5.10;99.90;;;;;;5012979;28;20442;-58
2022/11/17 03:11:04;;;;;;;;;;;5.10;99.90;;;;;;5016730;28;19988;-59
2022/11/17 03:13:36;;;;;;;;;;;5.10;99.90;;;;;;5016519;28;19963;-57
2022/11/17 03:16:04;;;;;;;;;;;5.10;99.90;;;;;;5019031;28;19963;-58
2022/11/17 03:18:35;;;;;;;;;;;5.20;99.90;;;;;;5028749;28;19956;-58
2022/11/17 03:21:18;;;;;;;;;;;5.20;99.90;;;;;;5013174;28;20335;-55
2022/11/17 03:23:45;;;;;;;;;;;5.20;99.90;;;;;;5013246;28;20331;-59
2022/11/17 03:26:14;;;;;;;;;;;5.20;99.90;;;;;;5011488;28;20003;-57
2022/11/17 03:28:40;;;;;;;;;;;5.20;99.90;;;;;;5012849;28;19917;-55
2022/11/17 03:31:08;;;;;;;;;;;5.20;99.90;;;;;;5012011;28;19921;-58
2022/11/17 03:33:35;;;;;;;;;;;5.20;99.90;;;;;;5012319;28;19913;-55
2022/11/17 03:36:14;;;;;;;;;;;5.20;99.90;;;;;;5024812;28;20000;-58
2022/11/17 03:38:43;;;;;;;;;;;5.30;99.90;;;;;;5015537;28;19918;-55
2022/11/17 03:41:11;;;;;;;;;;;5.20;99.90;;;;;;5012022;28;19910;-57
2022/11/17 03:43:38;;;;;;;;;;;5.20;99.90;;;;;;5012888;28;20372;-57
2022/11/17 03:46:09;;;;;;;;;;;5.20;99.90;;;;;;5013003;28;19913;-56
2022/11/17 03:48:36;;;;;;;;;;;5.20;99.90;;;;;;5015912;28;19924;-58
2022/11/17 03:51:05;;;;;;;;;;;5.20;99.90;;;;;;5012797;28;19917;-57
2022/11/17 03:53:31;;;;;;;;;;;5.20;99.90;;;;;;5011850;28;19910;-57
2022/11/17 03:56:00;;;;;;;;;;;5.20;99.90;;;;;;5012317;28;19913;-57
2022/11/17 03:58:28;;;;;;;;;;;5.10;99.90;;;;;;5017158;28;19967;-54
2022/11/17 04:00:57;;;;;;;;;;;5.10;99.90;;;;;;5013335;28;20276;-57
2022/11/17 04:03:22;;;;;;;;;;;5.00;99.90;;;;;;5014973;28;19909;-57
2022/11/17 04:05:48;;;;;;;;;;;5.10;99.90;;;;;;5017869;28;19919;-55
2022/11/17 04:08:13;;;;;;;;;;;5.10;99.90;;;;;;5015323;28;20000;-57
2022/11/17 04:16:07;;;;;;;;;;;5.20;99.90;;;;;;5023715;28;20438;-58
2022/11/17 04:18:32;;;;;;;;;;;5.10;99.90;;;;;;5015450;28;19914;-58
2022/11/17 04:20:58;;;;;;;;;;;5.10;99.90;;;;;;5011264;28;19920;-56
2022/11/17 04:23:24;;;;;;;;;;;5.10;99.90;;;;;;5011513;28;19941;-60
2022/11/17 04:28:35;;;;;;;;;;;5.00;99.90;;;;;;5011824;28;19920;-55
2022/11/17 04:31:09;;;;;;;;;;;5.00;99.90;;;;;;5010944;28;19978;-56
2022/11/17 04:33:36;;;;;;;;;;;5.00;99.90;;;;;;5012416;28;19956;-56
2022/11/17 04:36:02;;;;;;;;;;;5.00;99.90;;;;;;5011503;28;19962;-58
2022/11/17 04:38:27;;;;;;;;;;;5.00;99.90;;;;;;5030772;28;19935;-57
2022/11/17 04:43:43;;;;;;;;;;;5.00;99.90;;;;;;5011298;28;20410;-54
2022/11/17 04:46:08;;;;;;;;;;;5.00;99.90;;;;;;5010986;28;19941;-57
2022/11/17 04:48:34;;;;;;;;;;;5.00;99.90;;;;;;5010756;28;19940;-55
2022/11/17 04:50:59;;;;;;;;;;;5.00;99.90;;;;;;5009644;28;20372;-58
2022/11/17 04:53:24;;;;;;;;;;;5.00;99.90;;;;;;5010721;28;19910;-58
2022/11/17 04:55:50;;;;;;;;;;;5.00;99.90;;;;;;5011021;28;19972;-57
2022/11/17 04:58:16;;;;;;;;;;;5.00;99.90;;;;;;5024286;28;19913;-56
2022/11/17 05:00:41;;;;;;;;;;;5.00;99.90;;;;;;5030674;28;19913;-57
2022/11/17 05:03:07;;;;;;;;;;;5.10;99.90;;;;;;5030416;28;19913;-56
2022/11/17 05:05:32;;;;;;;;;;;5.10;99.90;;;;;;5012279;28;20016;-56
2022/11/17 05:07:58;;;;;;;;;;;5.00;99.90;;;;;;5011198;28;19976;-56
2022/11/17 05:13:21;;;;;;;;;;;5.10;99.90;;;;;;5008955;28;19928;-57
2022/11/17 05:18:42;;;;;;;;;;;5.00;99.90;;;;;;5020186;28;20311;-55
2022/11/17 05:21:08;;;;;;;;;;;4.90;99.90;;;;;;5010815;28;19918;-55
2022/11/17 05:26:19;;;;;;;;;;;4.90;99.90;;;;;;5012767;28;19921;-57
2022/11/17 05:28:44;;;;;;;;;;;4.90;99.90;;;;;;5011105;28;20291;-57
2022/11/17 05:31:10;;;;;;;;;;;4.90;99.90;;;;;;5010306;28;19916;-56
2022/11/17 05:33:36;;;;;;;;;;;5.00;99.90;;;;;;5010272;28;20187;-52
2022/11/17 05:36:01;;;;;;;;;;;5.00;99.90;;;;;;5010801;28;19922;-55
2022/11/17 05:38:27;;;;;;;;;;;5.00;99.90;;;;;;5021420;28;20379;-57
2022/11/17 05:40:52;;;;;;;;;;;5.00;99.90;;;;;;5010884;28;20770;-57
2022/11/17 05:43:18;;;;;;;;;;;5.00;99.90;;;;;;5012956;28;20372;-57
2022/11/17 05:45:44;;;;;;;;;;;5.00;99.90;;;;;;5010222;28;19933;-54
2022/11/17 05:48:09;;;;;;;;;;;5.10;99.90;;;;;;5010776;28;20360;-58
2022/11/17 05:50:35;;;;;;;;;;;5.10;99.90;;;;;;5014432;28;19924;-53
2022/11/17 05:53:00;;;;;;;;;;;5.20;99.90;;;;;;5015113;28;19917;-57
2022/11/17 05:55:26;;;;;;;;;;;5.20;99.90;;;;;;5014189;28;20725;-57
2022/11/17 05:57:52;;;;;;;;;;;5.20;99.90;;;;;;5021804;28;19921;-56
2022/11/17 06:00:18;;;;;;;;;;;5.20;99.90;;;;;;5013404;28;19910;-57
2022/11/17 06:02:50;;;;;;;;;;;5.20;99.90;;;;;;5023694;28;20541;-52
2022/11/17 06:05:16;;;;;;;;;;;5.20;99.90;;;;;;5021673;28;20656;-57
2022/11/17 06:07:42;;;;;;;;;;;5.20;99.90;;;;;;5013744;28;20424;-52
2022/11/17 06:10:07;;;;;;;;;;;5.20;99.90;;;;;;5014611;28;19917;-57
2022/11/17 06:12:33;;;;;;;;;;;5.20;99.90;;;;;;5014042;28;20075;-53
2022/11/17 06:14:58;;;;;;;;;;;5.30;99.90;;;;;;5020522;28;19921;-55
2022/11/17 06:17:26;;;;;;;;;;;5.30;99.90;;;;;;5015090;28;20004;-55
2022/11/17 06:19:57;;;;;;;;;;;5.30;99.90;;;;;;5013241;28;19917;-55
2022/11/17 06:22:24;;;;;;;;;;;5.30;99.90;;;;;;5013107;28;19914;-54
2022/11/17 06:24:49;;;;;;;;;;;5.30;99.90;;;;;;5014013;28;19913;-56
2022/11/17 06:27:16;;;;;;;;;;;5.30;99.90;;;;;;5023415;28;19967;-56
2022/11/17 06:29:41;;;;;;;;;;;5.30;99.90;;;;;;5024278;28;19960;-54
2022/11/17 06:32:07;;;;;;;;;;;5.30;99.90;;;;;;5013255;28;19975;-54
2022/11/17 06:34:33;;;;;;;;;;;5.30;99.90;;;;;;5014091;28;19913;-54
2022/11/17 06:36:59;;;;;;;;;;;5.30;99.90;;;;;;5013464;28;19910;-55
2022/11/17 06:39:24;;;;;;;;;;;5.30;99.90;;;;;;5020561;28;20245;-58
2022/11/17 06:41:50;;;;;;;;;;;5.40;99.90;;;;;;5013350;28;19910;-56
2022/11/17 06:44:15;;;;;;;;;;;5.40;99.90;;;;;;5013532;28;20269;-56
2022/11/17 06:46:41;;;;;;;;;;;5.40;99.90;;;;;;5012643;28;19909;-57
2022/11/17 06:49:07;;;;;;;;;;;5.40;99.90;;;;;;5012601;28;19922;-58
2022/11/17 06:51:33;;;;;;;;;;;5.40;99.90;;;;;;5013655;28;19946;-57
2022/11/17 06:53:59;;;;;;;;;;;5.40;99.90;;;;;;5014811;28;19909;-54
2022/11/17 06:56:24;;;;;;;;;;;5.40;99.90;;;;;;5013283;28;19916;-56
2022/11/17 06:58:50;;;;;;;;;;;5.40;99.90;;;;;;5018445;28;20020;-55
2022/11/17 07:01:15;;;;;;;;;;;5.40;99.90;;;;;;5022649;28;20008;-56
2022/11/17 07:03:43;;;;;;;;;;;5.40;99.90;;;;;;5012846;28;19925;-56
2022/11/17 07:06:10;;;;;;;;;;;5.50;99.90;;;;;;5012885;28;19914;-57
2022/11/17 07:08:35;;;;;;;;;;;5.50;99.90;;;;;;5013433;28;20440;-53
2022/11/17 07:11:05;;;;;;;;;;;5.50;99.90;;;;;;5012535;28;20016;-57
2022/11/17 07:13:31;;;;;;;;;;;5.60;99.90;;;;;;5016165;28;19983;-57
2022/11/17 07:16:00;;;;;;;;;;;5.60;99.90;;;;;;5024594;28;20326;-58
2022/11/17 07:18:26;;;;;;;;;;;5.50;99.90;;;;;;5018986;28;19922;-57
2022/11/17 07:20:52;;;;;;;;;;;5.50;99.90;;;;;;5028787;28;19963;-56
2022/11/17 07:23:17;;;;;;;;;;;5.60;99.90;;;;;;5023571;28;19924;-55
2022/11/17 07:25:42;;;;;;;;;;;5.60;99.90;;;;;;5016363;28;19913;-56
2022/11/17 07:28:08;;;;;;;;;;;5.70;99.90;;;;;;5017896;28;19913;-55
2022/11/17 07:30:35;;;;;;;;;;;5.60;99.90;;;;;;5022361;28;20283;-56
2022/11/17 07:33:00;;;;;;;;;;;5.70;99.90;;;;;;5018126;28;19916;-56
2022/11/17 07:35:26;;;;;;;;;;;5.70;99.90;;;;;;5012345;28;19921;-57
2022/11/17 07:37:55;;;;;;;;;;;5.80;99.90;;;;;;5013789;28;19918;-57
2022/11/17 07:40:21;;;;;;;;;;;5.80;99.90;;;;;;5020745;28;19914;-59
2022/11/17 07:42:47;;;;;;;;;;;5.80;99.90;;;;;;5019387;28;19922;-56
2022/11/17 07:45:13;;;;;;;;;;;5.90;99.90;;;;;;5008070;28;20030;-57
2022/11/17 07:47:38;;;;;;;;;;;5.90;99.90;;;;;;5015130;28;19913;-55
2022/11/17 07:50:04;;;;;;;;;;;6.00;99.90;;;;;;5020915;28;19917;-56
2022/11/17 07:52:30;;;;;;;;;;;6.10;99.90;;;;;;5013174;28;19980;-56
2022/11/17 07:54:55;;;;;;;;;;;6.10;99.90;;;;;;5013301;28;20376;-56
2022/11/17 07:57:21;;;;;;;;;;;6.10;99.90;;;;;;5016788;28;19913;-52
2022/11/17 07:59:46;;;;;;;;;;;6.20;99.90;;;;;;5018301;28;20326;-56
2022/11/17 08:02:12;;;;;;;;;;;6.20;99.90;;;;;;5012355;28;20011;-55
2022/11/17 08:04:37;;;;;;;;;;;6.30;99.90;;;;;;5006806;28;19913;-58
2022/11/17 08:07:03;;;;;;;;;;;6.30;99.90;;;;;;5018357;28;19913;-58
2022/11/17 08:09:28;;;;;;;;;;;6.30;99.90;;;;;;5007473;28;19921;-55
2022/11/17 08:11:54;;;;;;;;;;;6.30;99.90;;;;;;5019964;28;19921;-51
2022/11/17 08:14:19;;;;;;;;;;;6.30;99.90;;;;;;5013984;28;19913;-52
2022/11/17 08:16:45;;;;;;;;;;;6.30;99.90;;;;;;5020586;28;19913;-56
2022/11/17 08:19:11;;;;;;;;;;;6.40;99.90;;;;;;5020033;28;21051;-54
2022/11/17 08:21:36;;;;;;;;;;;6.40;99.90;;;;;;5021459;28;19917;-55
2022/11/17 08:24:02;;;;;;;;;;;6.40;99.90;;;;;;5020374;28;19951;-53
2022/11/17 08:26:27;;;;;;;;;;;6.40;99.90;;;;;;5006300;28;19917;-53
2022/11/17 08:28:53;;;;;;;;;;;6.40;99.90;;;;;;5019908;28;19917;-55
2022/11/17 08:31:18;;;;;;;;;;;6.50;99.90;;;;;;5013054;28;20034;-53
2022/11/17 08:33:44;;;;;;;;;;;6.50;99.90;;;;;;5011703;28;19921;-57
2022/11/17 08:36:09;;;;;;;;;;;6.60;99.90;;;;;;5010489;28;19917;-51
2022/11/17 08:38:35;;;;;;;;;;;6.50;99.90;;;;;;5012275;28;20008;-53
2022/11/17 08:41:01;;;;;;;;;;;6.60;99.90;;;;;;5018186;28;19917;-54
2022/11/17 08:43:27;;;;;;;;;;;6.70;99.90;;;;;;5013996;28;20016;-55
2022/11/17 08:45:52;;;;;;;;;;;6.80;99.90;;;;;;5010336;28;20009;-54
2022/11/17 08:48:18;;;;;;;;;;;6.80;99.90;;;;;;5013780;28;20257;-50
2022/11/17 08:50:43;;;;;;;;;;;6.80;99.90;;;;;;5011586;28;19921;-55
2022/11/17 08:53:13;;;;;;;;;;;6.90;99.90;;;;;;5028321;28;20356;-53
2022/11/17 08:55:38;;;;;;;;;;;6.90;99.90;;;;;;5030327;28;19955;-53
2022/11/17 08:58:04;;;;;;;;;;;6.90;99.90;;;;;;5027721;28;19945;-56
2022/11/17 09:00:29;;;;;;;;;;;6.90;99.90;;;;;;5012027;28;20008;-54
2022/11/17 09:02:55;;;;;;;;;;;6.80;99.90;;;;;;5010717;28;20017;-55
2022/11/17 09:05:20;;;;;;;;;;;6.90;99.90;;;;;;5010819;28;19914;-52
2022/11/17 09:07:46;;;;;;;;;;;7.00;99.90;;;;;;5010775;28;20352;-54
2022/11/17 09:10:11;;;;;;;;;;;7.10;99.90;;;;;;5010533;28;19997;-56
2022/11/17 09:12:37;;;;;;;;;;;7.10;99.90;;;;;;5010495;28;19933;-53
2022/11/17 09:15:03;;;;;;;;;;;7.10;99.90;;;;;;5010544;28;19909;-53
2022/11/17 09:17:29;;;;;;;;;;;6.90;99.90;;;;;;5010626;28;19910;-54
2022/11/17 09:19:55;;;;;;;;;;;7.00;99.90;;;;;;5010520;28;19959;-55
2022/11/17 09:22:20;;;;;;;;;;;7.00;99.90;;;;;;5025281;28;20344;-54
2022/11/17 09:24:46;;;;;;;;;;;7.10;99.90;;;;;;5010208;28;19928;-53
2022/11/17 09:27:12;;;;;;;;;;;7.00;99.90;;;;;;5010431;28;19913;-56
2022/11/17 09:29:38;;;;;;;;;;;7.00;99.90;;;;;;5023316;28;20319;-53
2022/11/17 09:32:03;;;;;;;;;;;7.00;99.90;;;;;;5019645;28;19921;-56
2022/11/17 09:34:29;;;;;;;;;;;7.10;99.90;;;;;;5011183;28;19917;-53
2022/11/17 09:36:54;;;;;;;;;;;7.10;99.90;;;;;;5010511;28;19909;-56
2022/11/17 09:39:20;;;;;;;;;;;7.00;99.90;;;;;;5010823;28;19909;-53
2022/11/17 09:41:48;;;;;;;;;;;7.00;99.90;;;;;;5019493;28;20493;-50
2022/11/17 09:44:19;;;;;;;;;;;7.00;99.90;;;;;;5011365;28;20364;-54
2022/11/17 09:46:47;;;;;;;;;;;6.90;99.90;;;;;;5011647;28;19955;-55
2022/11/17 09:49:16;;;;;;;;;;;7.00;99.90;;;;;;5010782;28;19914;-53
2022/11/17 09:51:44;;;;;;;;;;;7.00;99.90;;;;;;5010935;28;19955;-51
2022/11/17 09:54:17;;;;;;;;;;;7.10;99.90;;;;;;5010022;28;20372;-52
2022/11/17 09:56:43;;;;;;;;;;;7.10;99.90;;;;;;5011856;28;19913;-52
2022/11/17 09:59:11;;;;;;;;;;;7.10;99.90;;;;;;5011954;28;19971;-54
2022/11/17 10:01:37;;;;;;;;;;;7.10;99.90;;;;;;5010027;28;19967;-54
2022/11/17 10:04:08;;;;;;;;;;;7.10;99.90;;;;;;5010311;28;19910;-51
2022/11/17 10:06:33;;;;;;;;;;;7.10;99.90;;;;;;5011149;28;20403;-56
2022/11/17 10:09:01;;;;;;;;;;;7.10;99.90;;;;;;5023580;28;19917;-55
2022/11/17 10:11:31;;;;;;;;;;;7.10;99.90;;;;;;5014795;28;20458;-54
2022/11/17 10:14:12;;;;;;;;;;;7.10;99.90;;;;;;5012443;28;19921;-58
2022/11/17 10:16:39;;;;;;;;;;;7.10;99.90;;;;;;5010557;28;20372;-54
2022/11/17 10:19:10;;;;;;;;;;;7.20;99.90;;;;;;5013267;28;20368;-54
2022/11/17 10:21:36;;;;;;;;;;;7.20;99.90;;;;;;5009827;28;20705;-53
2022/11/17 10:24:01;;;;;;;;;;;7.10;99.90;;;;;;5010000;28;19925;-56
2022/11/17 10:26:27;;;;;;;;;;;7.20;99.90;;;;;;5021762;28;19913;-58
2022/11/17 10:29:06;;;;;;;;;;;7.20;99.90;;;;;;5018569;28;20260;-54
2022/11/17 10:31:38;;;;;;;;;;;7.20;99.90;;;;;;5012544;28;19920;-55
2022/11/17 10:34:04;;;;;;;;;;;7.20;99.90;;;;;;5012897;28;19995;-55
2022/11/17 10:36:30;;;;;;;;;;;7.20;99.90;;;;;;5011027;28;20745;-55
2022/11/17 10:38:56;;;;;;;;;;;7.20;99.90;;;;;;5011871;28;19955;-55
2022/11/17 10:41:25;;;;;;;;;;;7.20;99.90;;;;;;5016252;28;20055;-57
2022/11/17 10:43:54;;;;;;;;;;;7.20;99.90;;;;;;5023479;28;19913;-54
2022/11/17 10:46:19;;;;;;;;;;;7.20;99.90;;;;;;5017112;28;19968;-54
2022/11/17 10:48:56;;;;;;;;;;;7.20;99.90;;;;;;5014097;28;19913;-57
2022/11/17 10:51:23;;;;;;;;;;;7.30;99.90;;;;;;5015545;28;19940;-57
2022/11/17 10:54:02;;;;;;;;;;;7.40;99.90;;;;;;5012726;28;20372;-56
2022/11/17 10:56:28;;;;;;;;;;;7.40;99.90;;;;;;5012388;28;20290;-56
2022/11/17 10:58:57;;;;;;;;;;;7.30;99.90;;;;;;5024988;28;19948;-52
2022/11/17 11:01:28;;;;;;;;;;;7.20;99.90;;;;;;5018839;28;20257;-55
2022/11/17 11:03:54;;;;;;;;;;;7.10;99.90;;;;;;5021361;28;19956;-56
2022/11/17 11:06:21;;;;;;;;;;;7.10;99.90;;;;;;5024453;28;19917;-54
2022/11/17 11:08:54;;;;;;;;;;;7.10;99.90;;;;;;5016902;28;19928;-53
2022/11/17 11:11:28;;;;;;;;;;;7.10;99.90;;;;;;5021797;28;20020;-54
2022/11/17 11:13:57;;;;;;;;;;;7.10;99.90;;;;;;5014243;28;19968;-56
2022/11/17 11:16:24;;;;;;;;;;;7.00;99.90;;;;;;5012212;28;20004;-56
2022/11/17 11:18:51;;;;;;;;;;;7.00;99.90;;;;;;5015131;28;19910;-57
2022/11/17 11:21:25;;;;;;;;;;;7.00;99.90;;;;;;5013849;28;20390;-54
2022/11/17 11:24:09;;;;;;;;;;;7.00;99.90;;;;;;5012597;28;19921;-55
2022/11/17 11:27:00;;;;;;;;;;;7.00;99.90;;;;;;5022972;28;19915;-57
2022/11/17 11:29:38;;;;;;;;;;;7.00;99.90;;;;;;5029885;28;19972;-56
2022/11/17 11:32:13;;;;;;;;;;;7.00;99.90;;;;;;5023967;28;19913;-55
2022/11/17 11:34:41;;;;;;;;;;;7.00;99.90;;;;;;5011792;28;19914;-56
2022/11/17 11:37:08;;;;;;;;;;;7.00;99.90;;;;;;5012319;28;19963;-55
2022/11/17 11:39:45;;;;;;;;;;;7.10;99.90;;;;;;5017794;28;19952;-55
2022/11/17 11:42:34;;;;;;;;;;;7.10;99.90;;;;;;5012037;28;19917;-55
2022/11/17 11:45:05;;;;;;;;;;;7.10;99.90;;;;;;5008240;28;19910;-54
2022/11/17 11:47:46;;;;;;;;;;;7.20;99.90;;;;;;5030793;28;19955;-55
2022/11/17 11:50:14;;;;;;;;;;;7.20;99.90;;;;;;5014608;28;19987;-56
2022/11/17 11:52:44;;;;;;;;;;;7.30;99.90;;;;;;5011643;28;19975;-54
2022/11/17 11:55:26;;;;;;;;;;;7.30;99.90;;;;;;5012740;28;19909;-50
2022/11/17 11:58:10;;;;;;;;;;;7.40;99.90;;;;;;5022235;28;19913;-58
2022/11/17 12:00:37;;;;;;;;;;;7.50;99.90;;;;;;5012886;28;19913;-53
2022/11/17 12:03:09;;;;;;;;;;;7.60;99.90;;;;;;5012335;28;20326;-57
2022/11/17 12:05:50;;;;;;;;;;;7.60;99.90;;;;;;5011564;28;19917;-57
2022/11/17 12:08:35;;;;;;;;;;;7.70;99.90;;;;;;5010579;28;19918;-55
2022/11/17 12:11:59;;;;;;;;;;;7.70;99.90;;;;;;5012854;28;19928;-57
2022/11/17 12:13:55;;;;;;;;;;;7.70;99.90;;;;;;5011579;28;19925;-57
2022/11/17 12:16:32;;;;;;;;;;;7.70;99.90;;;;;;5011707;28;20360;-56
2022/11/17 12:18:58;;;;;;;;;;;7.80;99.90;;;;;;5011562;28;19920;-55
2022/11/17 12:21:24;;;;;;;;;;;7.90;99.90;;;;;;5011643;28;20363;-57
2022/11/17 12:24:08;;;;;;;;;;;7.80;99.90;;;;;;5012603;28;19917;-55
2022/11/17 12:26:34;;;;;;;;;;;7.80;99.90;;;;;;5012431;28;19916;-55
2022/11/17 12:29:18;;;;;;;;;;;7.60;99.90;;;;;;5020924;28;19913;-57
2022/11/17 12:31:45;;;;;;;;;;;7.60;99.90;;;;;;5025229;28;19913;-58
2022/11/17 12:34:13;;;;;;;;;;;7.50;99.90;;;;;;5020859;28;19913;-55
2022/11/17 12:36:38;;;;;;;;;;;7.50;99.90;;;;;;5030609;28;19917;-57
2022/11/17 12:39:07;;;;;;;;;;;7.50;99.90;;;;;;5018056;28;20384;-57
2022/11/17 12:41:48;;;;;;;;;;;7.50;99.90;;;;;;5012345;28;19968;-54
2022/11/17 12:44:32;;;;;;;;;;;7.40;99.90;;;;;;5011618;28;20304;-57
2022/11/17 12:47:15;;;;;;;;;;;7.30;99.90;;;;;;5010951;28;19917;-56
2022/11/17 12:50:00;;;;;;;;;;;7.30;99.90;;;;;;5016570;28;19917;-57
2022/11/17 12:52:30;;;;;;;;;;;7.20;99.90;;;;;;5019157;28;19909;-54
2022/11/17 12:55:04;;;;;;;;;;;7.10;99.90;;;;;;5015492;28;20359;-57
2022/11/17 12:57:31;;;;;;;;;;;7.10;99.90;;;;;;5018185;28;20363;-57
2022/11/17 13:00:00;;;;;;;;;;;7.10;99.90;;;;;;5015329;28;19917;-57
2022/11/17 13:02:40;;;;;;;;;;;7.00;99.90;;;;;;5010635;28;19916;-57
2022/11/17 13:05:14;;;;;;;;;;;6.90;99.90;;;;;;5014033;28;19995;-56
2022/11/17 13:07:39;;;;;;;;;;;6.90;99.90;;;;;;5016665;28;19921;-56
2022/11/17 13:10:05;;;;;;;;;;;6.90;99.90;;;;;;5010573;28;20392;-56
2022/11/17 13:12:32;;;;;;;;;;;6.90;99.90;;;;;;5010918;28;20360;-59
2022/11/17 13:15:02;;;;;;;;;;;6.80;99.90;;;;;;5017225;28;20017;-56
2022/11/17 13:17:30;;;;;;;;;;;6.80;99.90;;;;;;5010675;28;19925;-58
2022/11/17 13:20:00;;;;;;;;;;;6.70;99.90;;;;;;5008515;28;19926;-58
2022/11/17 13:22:25;;;;;;;;;;;6.60;99.90;;;;;;5011675;28;19917;-57
2022/11/17 13:24:52;;;;;;;;;;;6.60;99.90;;;;;;5009787;28;19924;-57
2022/11/17 13:27:25;;;;;;;;;;;6.60;99.90;;;;;;5010480;28;19925;-59
2022/11/17 13:29:52;;;;;;;;;;;6.60;99.90;;;;;;5021049;28;19925;-57
2022/11/17 13:32:20;;;;;;;;;;;6.60;99.90;;;;;;5011660;28;19924;-59
2022/11/17 13:34:46;;;;;;;;;;;6.50;99.90;;;;;;5010492;28;19999;-58
2022/11/17 13:37:22;;;;;;;;;;;6.50;99.90;;;;;;5011823;28;19917;-56
2022/11/17 13:39:59;;;;;;;;;;;6.50;99.90;;;;;;5019885;28;19961;-57
2022/11/17 13:42:25;;;;;;;;;;;6.50;99.90;;;;;;5021400;28;20013;-56
2022/11/17 13:44:53;;;;;;;;;;;6.50;99.90;;;;;;5016490;28;20242;-57
2022/11/17 13:47:38;;;;;;;;;;;6.50;99.90;;;;;;5011268;28;20353;-58
2022/11/17 13:50:20;;;;;;;;;;;6.50;99.90;;;;;;5025380;28;19918;-57
2022/11/17 13:52:46;;;;;;;;;;;6.50;99.90;;;;;;5010190;28;20364;-57
2022/11/17 13:55:16;;;;;;;;;;;6.50;99.90;;;;;;5010924;28;19918;-58
2022/11/17 13:57:51;;;;;;;;;;;6.50;99.90;;;;;;5012721;28;20353;-58
2022/11/17 14:00:17;;;;;;;;;;;6.50;99.90;;;;;;5009632;28;20004;-55
2022/11/17 14:03:02;;;;;;;;;;;6.50;99.90;;;;;;5009901;28;20008;-58
2022/11/17 14:05:28;;;;;;;;;;;6.50;99.90;;;;;;5011214;28;19953;-58
2022/11/17 14:07:56;;;;;;;;;;;6.40;99.90;;;;;;5018826;28;19918;-55
2022/11/17 14:10:21;;;;;;;;;;;6.50;99.90;;;;;;5012358;28;20283;-56
2022/11/17 14:12:48;;;;;;;;;;;6.40;99.90;;;;;;5024467;28;19925;-57
2022/11/17 14:15:20;;;;;;;;;;;6.40;99.90;;;;;;5013921;28;19910;-56
2022/11/17 14:17:49;;;;;;;;;;;6.40;99.90;;;;;;5013490;28;19913;-55
2022/11/17 14:20:23;;;;;;;;;;;6.30;99.90;;;;;;5016484;28;20353;-58
2022/11/17 14:23:14;;;;;;;;;;;6.30;99.90;;;;;;5018917;28;19909;-56
2022/11/17 14:25:44;;;;;;;;;;;6.30;99.90;;;;;;5020932;28;19920;-55
2022/11/17 14:28:12;;;;;;;;;;;6.40;99.90;;;;;;5032420;28;19913;-58
2022/11/17 14:30:38;;;;;;;;;;;6.40;99.90;;;;;;5017298;28;19921;-56
2022/11/17 14:33:03;;;;;;;;;;;6.30;99.90;;;;;;5013716;28;19909;-56
2022/11/17 14:35:29;;;;;;;;;;;6.40;99.90;;;;;;5016223;28;19921;-53
2022/11/17 14:37:54;;;;;;;;;;;6.30;99.90;;;;;;5017925;28;19968;-56
2022/11/17 14:40:20;;;;;;;;;;;6.30;99.90;;;;;;5021712;28;19909;-56
2022/11/17 14:42:45;;;;;;;;;;;6.30;99.90;;;;;;5033478;28;19920;-58
2022/11/17 14:45:12;;;;;;;;;;;6.30;99.90;;;;;;5033249;28;19959;-57
2022/11/17 14:47:38;;;;;;;;;;;6.30;99.90;;;;;;5033178;28;20009;-58
2022/11/17 14:50:04;;;;;;;;;;;6.40;99.90;;;;;;5031576;28;20000;-53
2022/11/17 14:52:30;;;;;;;;;;;6.30;99.90;;;;;;5030838;28;19913;-57
2022/11/17 14:54:55;;;;;;;;;;;6.30;99.90;;;;;;5026898;28;19925;-57
2022/11/17 14:57:20;;;;;;;;;;;6.30;99.90;;;;;;5029908;28;19991;-59
2022/11/17 14:59:46;;;;;;;;;;;6.30;99.90;;;;;;5033048;28;20340;-56
2022/11/17 15:02:11;;;;;;;;;;;6.30;99.90;;;;;;5032138;28;19913;-59
2022/11/17 15:04:39;;;;;;;;;;;6.30;99.90;;;;;;5024595;28;19924;-57
2022/11/17 15:07:04;;;;;;;;;;;6.30;99.90;;;;;;5031642;28;19975;-58
2022/11/17 15:09:30;;;;;;;;;;;6.30;99.90;;;;;;5031696;28;19921;-58